KD5UMO-1 Weather Reports


time (UTC)temp
C
wind
direction
speed
KPH
gust
KPH
rain 1hr
cm
rain 24hr
cm
rain mn
cm
humidity
%
barometer
mb
20211017153212 17 186 0.0 0.0 0.00 0.00 0.00 51 1026.4
20211017152649 17 186 0.0 1.6 0.00 0.00 0.00 51 1026.4
20211017152049 17 197 0.0 3.2 0.00 0.00 0.00 52 1026.4
20211017151449 16 200 4.8 4.8 0.00 0.00 0.00 55 1026.4
20211017150848 16 203 3.2 3.2 0.00 0.00 0.00 57 1026.4
20211017150713 16 203 1.6 4.8 0.00 0.00 0.00 57 1026.4
20211017150249 16 168 0.0 0.0 0.00 0.00 0.00 58 1026.4
20211017150213 16 168 0.0 0.0 0.00 0.00 0.00 58 1026.4
20211017145712 15 201 0.0 4.8 0.00 0.00 0.00 62 1026.4
20211017145650 15 9 1.6 1.6 0.00 0.00 0.00 64 1026.4
20211017145213 15 9 0.0 0.0 0.00 0.00 0.00 67 1026.3
20211017145050 14 9 0.0 0.0 0.00 0.00 0.00 68 1026.3
20211017144714 14 9 0.0 0.0 0.00 0.00 0.00 71 1026.3
20211017144449 13 9 0.0 0.0 0.00 0.00 0.00 72 1026.2
20211017144214 13 9 0.0 0.0 0.00 0.00 0.00 73 1026.2
20211017143849 13 9 0.0 0.0 0.00 0.00 0.00 75 1026.1
20211017143713 13 9 0.0 0.0 0.00 0.00 0.00 76 1026.1
20211017143249 12 9 0.0 0.0 0.00 0.00 0.00 78 1026.1
20211017143212 12 9 0.0 0.0 0.00 0.00 0.00 78 1026.1
20211017142712 12 9 0.0 0.0 0.00 0.00 0.00 82 1026.1
20211017142649 11 9 0.0 0.0 0.00 0.00 0.00 83 1026.1
20211017142215 11 9 0.0 0.0 0.00 0.00 0.00 87 1026.1
20211017142049 11 9 0.0 0.0 0.00 0.00 0.00 88 1026.1
20211017141714 11 9 0.0 0.0 0.00 0.00 0.00 88 1026.0
20211017141450 10 9 0.0 0.0 0.00 0.00 0.00 89 1026.0
20211017141214 10 9 0.0 0.0 0.00 0.00 0.00 89 1026.0
20211017140849 10 9 0.0 0.0 0.00 0.00 0.00 88 1026.0
20211017140713 10 9 0.0 0.0 0.00 0.00 0.00 89 1025.9
20211017140250 9 9 0.0 0.0 0.00 0.00 0.00 89 1025.8
20211017135648 9 9 0.0 0.0 0.00 0.00 0.00 89 1025.8
20211017135213 8 9 0.0 0.0 0.00 0.00 0.00 89 1025.8
20211017135048 8 9 0.0 0.0 0.00 0.00 0.00 89 1025.8
20211017134449 8 9 0.0 0.0 0.00 0.00 0.00 90 1025.7
20211017134212 8 9 0.0 0.0 0.00 0.00 0.00 90 1025.7
20211017133850 8 9 0.0 0.0 0.00 0.00 0.00 90 1025.6
20211017133714 8 9 0.0 0.0 0.00 0.00 0.00 90 1025.6
20211017133249 7 9 0.0 0.0 0.00 0.00 0.00 90 1025.5
20211017132713 7 9 0.0 0.0 0.00 0.00 0.00 90 1025.4
20211017132649 7 9 0.0 0.0 0.00 0.00 0.00 90 1025.4
20211017132050 7 9 0.0 0.0 0.00 0.00 0.00 90 1025.3
20211017131449 6 9 0.0 0.0 0.00 0.00 0.00 90 1025.2
20211017131213 6 9 0.0 0.0 0.00 0.00 0.00 90 1025.1
20211017130848 6 9 0.0 0.0 0.00 0.00 0.00 89 1025.1
20211017130713 6 9 0.0 0.0 0.00 0.00 0.00 89 1025.1
20211017130248 6 9 0.0 0.0 0.00 0.00 0.00 89 1025.1
20211017125712 6 9 0.0 0.0 0.00 0.00 0.00 89 1025.1
20211017125649 6 9 0.0 0.0 0.00 0.00 0.00 89 1025.0
20211017125214 6 9 0.0 0.0 0.00 0.00 0.00 89 1025.1
20211017125049 6 9 0.0 0.0 0.00 0.00 0.00 89 1025.0
20211017124713 6 9 0.0 0.0 0.00 0.00 0.00 89 1025.0
20211017124450 6 9 0.0 0.0 0.00 0.00 0.00 88 1025.0
20211017123849 6 9 0.0 0.0 0.00 0.00 0.00 88 1025.0
20211017123712 6 9 0.0 0.0 0.00 0.00 0.00 88 1025.0
20211017123249 6 9 0.0 0.0 0.00 0.00 0.00 88 1025.0
20211017123213 6 9 0.0 0.0 0.00 0.00 0.00 88 1025.0
20211017122712 6 9 0.0 0.0 0.00 0.00 0.00 89 1025.0
20211017122650 6 9 0.0 0.0 0.00 0.00 0.00 89 1025.0
20211017122214 6 9 0.0 0.0 0.00 0.00 0.00 88 1025.0
20211017122050 6 9 0.0 0.0 0.00 0.00 0.00 88 1025.1
20211017121450 6 9 0.0 0.0 0.00 0.00 0.00 88 1025.1
20211017121214 6 9 0.0 0.0 0.00 0.00 0.00 88 1025.0
20211017120850 6 9 0.0 0.0 0.00 0.00 0.00 87 1024.9
20211017120714 6 9 0.0 0.0 0.00 0.00 0.00 87 1024.9
20211017120250 6 9 0.0 0.0 0.00 0.00 0.00 87 1025.0
20211017115713 6 9 0.0 0.0 0.00 0.00 0.00 87 1025.0
20211017115649 6 9 0.0 0.0 0.00 0.00 0.00 87 1025.0
20211017115214 6 9 0.0 0.0 0.00 0.00 0.00 87 1025.1
20211017115049 6 9 0.0 0.0 0.00 0.00 0.00 87 1025.0
20211017114713 6 9 0.0 0.0 0.00 0.00 0.00 87 1025.0
20211017114448 6 9 0.0 0.0 0.00 0.00 0.00 87 1025.0
20211017113851 6 9 0.0 0.0 0.00 0.00 0.00 87 1025.0
20211017113714 6 9 0.0 0.0 0.00 0.00 0.00 87 1025.0
20211017113250 6 9 0.0 0.0 0.00 0.00 0.00 87 1025.0
20211017113213 6 9 0.0 0.0 0.00 0.00 0.00 87 1025.0
20211017112714 6 9 0.0 0.0 0.00 0.00 0.00 87 1024.8
20211017112649 6 9 0.0 0.0 0.00 0.00 0.00 87 1024.9
20211017112212 6 9 0.0 0.0 0.00 0.00 0.00 87 1024.8
20211017112050 6 9 0.0 0.0 0.00 0.00 0.00 87 1024.8
20211017111714 6 9 0.0 0.0 0.00 0.00 0.00 87 1024.8
20211017111450 6 9 0.0 0.0 0.00 0.00 0.00 87 1024.7
20211017111213 7 9 0.0 0.0 0.00 0.00 0.00 87 1024.7
20211017110849 7 9 0.0 0.0 0.00 0.00 0.00 87 1024.7
20211017110712 7 9 0.0 0.0 0.00 0.00 0.00 87 1024.7
20211017110250 7 9 0.0 0.0 0.00 0.00 0.00 86 1024.7
20211017110213 7 9 0.0 0.0 0.00 0.00 0.00 86 1024.7
20211017105712 7 9 0.0 0.0 0.00 0.00 0.00 86 1024.6
20211017105649 7 9 0.0 0.0 0.00 0.00 0.00 86 1024.7
20211017105213 7 9 0.0 0.0 0.00 0.00 0.00 86 1024.6
20211017105050 7 9 0.0 0.0 0.00 0.00 0.00 86 1024.6
20211017104713 7 9 0.0 0.0 0.00 0.00 0.00 86 1024.6
20211017104449 7 9 0.0 0.0 0.00 0.00 0.00 86 1024.7
20211017104214 7 9 0.0 0.0 0.00 0.00 0.00 86 1024.7
20211017103849 7 9 0.0 0.0 0.00 0.00 0.00 85 1024.7
20211017103250 7 9 0.0 0.0 0.00 0.00 0.00 85 1024.7
20211017103213 7 9 0.0 0.0 0.00 0.00 0.00 85 1024.7
20211017102712 7 9 0.0 0.0 0.00 0.00 0.00 85 1024.8
20211017102650 7 9 0.0 0.0 0.00 0.00 0.00 85 1024.8
20211017102213 7 9 0.0 0.0 0.00 0.00 0.00 85 1024.8
20211017102050 7 9 0.0 0.0 0.00 0.00 0.00 85 1024.8
20211017101449 7 9 0.0 0.0 0.00 0.00 0.00 85 1024.9
20211017101212 7 9 0.0 0.0 0.00 0.00 0.00 85 1024.9
20211017100849 7 9 0.0 0.0 0.00 0.00 0.00 85 1025.0
20211017100714 7 9 0.0 0.0 0.00 0.00 0.00 85 1025.0
20211017100250 7 9 0.0 0.0 0.00 0.00 0.00 84 1024.8
20211017095713 7 9 0.0 0.0 0.00 0.00 0.00 84 1024.9
20211017095650 7 9 0.0 0.0 0.00 0.00 0.00 84 1024.9
20211017095214 7 9 0.0 0.0 0.00 0.00 0.00 84 1024.8
20211017095049 7 9 0.0 0.0 0.00 0.00 0.00 84 1024.8
20211017094714 7 9 0.0 0.0 0.00 0.00 0.00 84 1024.8
20211017094450 7 9 0.0 0.0 0.00 0.00 0.00 84 1024.8
20211017094212 7 9 0.0 0.0 0.00 0.00 0.00 84 1024.8
20211017093849 7 9 0.0 0.0 0.00 0.00 0.00 84 1024.9
20211017093712 7 9 0.0 0.0 0.00 0.00 0.00 84 1024.9
20211017093250 7 9 0.0 0.0 0.00 0.00 0.00 84 1024.9
20211017093212 7 9 0.0 0.0 0.00 0.00 0.00 84 1024.9
20211017092713 7 9 0.0 0.0 0.00 0.00 0.00 83 1025.0
20211017092650 7 9 0.0 0.0 0.00 0.00 0.00 83 1025.0
20211017092213 7 9 0.0 0.0 0.00 0.00 0.00 83 1025.0
20211017092050 7 9 0.0 0.0 0.00 0.00 0.00 83 1025.0
20211017091449 7 9 0.0 0.0 0.00 0.00 0.00 83 1025.1
20211017091213 7 9 0.0 0.0 0.00 0.00 0.00 83 1025.1
20211017090850 7 9 0.0 0.0 0.00 0.00 0.00 82 1025.1
20211017090714 7 9 0.0 0.0 0.00 0.00 0.00 82 1025.1
20211017090250 7 9 0.0 0.0 0.00 0.00 0.00 82 1025.0
20211017085713 7 9 0.0 0.0 0.00 0.00 0.00 82 1025.0
20211017085649 7 9 0.0 0.0 0.00 0.00 0.00 82 1025.0
20211017085049 8 9 0.0 0.0 0.00 0.00 0.00 81 1024.8
20211017084713 8 9 0.0 0.0 0.00 0.00 0.00 81 1024.8
20211017084449 8 9 0.0 0.0 0.00 0.00 0.00 81 1024.8
20211017084213 8 9 0.0 0.0 0.00 0.00 0.00 81 1024.8
20211017083849 8 9 0.0 0.0 0.00 0.00 0.00 81 1024.9
20211017083714 8 9 0.0 0.0 0.00 0.00 0.00 81 1024.8
20211017083249 8 9 0.0 0.0 0.00 0.00 0.00 81 1024.9
20211017083213 8 9 0.0 0.0 0.00 0.00 0.00 81 1024.9
20211017082713 8 9 0.0 0.0 0.00 0.00 0.00 81 1024.8
20211017082649 8 9 0.0 0.0 0.00 0.00 0.00 81 1024.9
20211017082214 8 9 0.0 0.0 0.00 0.00 0.00 81 1024.9
20211017082050 8 9 0.0 0.0 0.00 0.00 0.00 82 1025.0
20211017081449 8 9 0.0 0.0 0.00 0.00 0.00 81 1024.9
20211017081213 8 9 0.0 0.0 0.00 0.00 0.00 82 1025.0
20211017080849 8 9 0.0 0.0 0.00 0.00 0.00 82 1024.9
20211017080713 8 9 0.0 0.0 0.00 0.00 0.00 82 1025.0
20211017080249 8 9 0.0 0.0 0.00 0.00 0.00 83 1025.0
20211017080213 8 9 0.0 0.0 0.00 0.00 0.00 83 1025.0
20211017075713 8 9 0.0 0.0 0.00 0.00 0.00 82 1025.0
20211017075650 8 9 0.0 0.0 0.00 0.00 0.00 82 1025.0
20211017075213 8 9 0.0 0.0 0.00 0.00 0.00 82 1025.0
20211017075049 8 9 0.0 0.0 0.00 0.00 0.00 82 1024.9
20211017074712 8 9 0.0 0.0 0.00 0.00 0.00 82 1024.8
20211017074449 8 9 0.0 0.0 0.00 0.00 0.00 82 1025.0
20211017074212 8 9 0.0 0.0 0.00 0.00 0.00 82 1024.9
20211017073849 8 9 0.0 0.0 0.00 0.00 0.00 82 1024.9
20211017073713 8 9 0.0 0.0 0.00 0.00 0.00 82 1024.8
20211017073250 8 9 0.0 0.0 0.00 0.00 0.00 82 1024.9
20211017072712 8 9 0.0 0.0 0.00 0.00 0.00 81 1024.9
20211017072650 8 9 0.0 0.0 0.00 0.00 0.00 81 1024.9
20211017072050 8 9 0.0 0.0 0.00 0.00 0.00 81 1024.9
20211017071713 9 9 0.0 0.0 0.00 0.00 0.00 81 1025.0
20211017071449 9 9 0.0 0.0 0.00 0.00 0.00 81 1025.0
20211017070849 9 9 0.0 0.0 0.00 0.00 0.00 81 1024.9
20211017070713 9 9 0.0 0.0 0.00 0.00 0.00 81 1024.9
20211017070249 9 9 0.0 0.0 0.00 0.00 0.00 81 1024.8
20211017065649 9 9 0.0 0.0 0.00 0.00 0.00 81 1024.8
20211017065047 9 9 0.0 0.0 0.00 0.00 0.00 80 1024.8
20211017064711 9 9 0.0 0.0 0.00 0.00 0.00 80 1024.8
20211017064447 9 9 0.0 0.0 0.00 0.00 0.00 80 1024.8
20211017064210 9 9 0.0 0.0 0.00 0.00 0.00 80 1024.7
20211017063849 10 9 0.0 0.0 0.00 0.00 0.00 79 1024.9
20211017063713 10 9 0.0 0.0 0.00 0.00 0.00 79 1024.8
20211017063249 10 9 0.0 0.0 0.00 0.00 0.00 79 1024.7
20211017063213 10 9 0.0 0.0 0.00 0.00 0.00 79 1024.7
20211017062647 10 9 0.0 0.0 0.00 0.00 0.00 80 1024.7
20211017062212 10 9 0.0 0.0 0.00 0.00 0.00 80 1024.6
20211017062048 10 9 0.0 0.0 0.00 0.00 0.00 79 1024.7
20211017061712 10 9 0.0 0.0 0.00 0.00 0.00 79 1024.7
20211017061447 10 9 0.0 0.0 0.00 0.00 0.00 79 1024.6
20211017061212 10 9 0.0 0.0 0.00 0.00 0.00 79 1024.6
20211017060848 10 9 0.0 0.0 0.00 0.00 0.00 79 1024.6
20211017060711 10 9 0.0 0.0 0.00 0.00 0.00 79 1024.6
20211017060247 10 9 0.0 0.0 0.00 0.00 0.00 78 1024.6
20211017060212 10 9 0.0 0.0 0.00 0.00 0.00 78 1024.6
20211017055711 10 9 0.0 0.0 0.00 0.00 0.00 78 1024.6
20211017055648 10 9 0.0 0.0 0.00 0.00 0.00 77 1024.5
20211017055211 10 9 0.0 0.0 0.00 0.00 0.00 77 1024.5
20211017055048 10 9 0.0 0.0 0.00 0.00 0.00 77 1024.5
20211017054710 10 9 0.0 0.0 0.00 0.00 0.00 77 1024.5
20211017054449 10 9 0.0 0.0 0.00 0.00 0.00 77 1024.5
20211017054211 10 9 0.0 0.0 0.00 0.00 0.00 77 1024.5
20211017053848 10 9 0.0 0.0 0.00 0.00 0.00 76 1024.5
20211017053711 10 9 0.0 0.0 0.00 0.00 0.00 76 1024.5
20211017053248 10 9 0.0 0.0 0.00 0.00 0.00 77 1024.6
20211017052711 10 9 0.0 0.0 0.00 0.00 0.00 76 1024.6
20211017052647 10 9 0.0 0.0 0.00 0.00 0.00 76 1024.6
20211017052212 10 9 0.0 0.0 0.00 0.00 0.00 76 1024.7
20211017052048 10 9 0.0 0.0 0.00 0.00 0.00 76 1024.6
20211017051447 10 9 0.0 0.0 0.00 0.00 0.00 76 1024.7
20211017050848 10 9 0.0 0.0 0.00 0.00 0.00 75 1024.8
20211017050711 10 9 0.0 0.0 0.00 0.00 0.00 76 1024.7
20211017050247 10 9 0.0 0.0 0.00 0.00 0.00 77 1024.6
20211017050211 10 9 0.0 0.0 0.00 0.00 0.00 77 1024.6
20211017045648 10 9 0.0 0.0 0.00 0.00 0.00 76 1024.7
20211017045211 10 9 0.0 0.0 0.00 0.00 0.00 76 1024.7
20211017045049 10 9 0.0 0.0 0.00 0.00 0.00 76 1024.7
20211017044712 10 9 0.0 0.0 0.00 0.00 0.00 75 1024.7
20211017044448 10 9 0.0 0.0 0.00 0.00 0.00 75 1024.7
20211017043848 10 9 0.0 0.0 0.00 0.00 0.00 75 1024.8
20211017043712 10 9 0.0 0.0 0.00 0.00 0.00 75 1024.8
20211017043249 10 9 0.0 0.0 0.00 0.00 0.00 74 1024.8
20211017042648 11 9 0.0 0.0 0.00 0.00 0.00 73 1024.9
20211017042212 11 9 0.0 0.0 0.00 0.00 0.00 73 1024.8
20211017042048 11 9 0.0 0.0 0.00 0.00 0.00 73 1024.9
20211017041447 11 9 0.0 0.0 0.00 0.00 0.00 73 1024.8
20211017040847 11 9 0.0 0.0 0.00 0.00 0.00 72 1025.0
20211017040248 11 9 0.0 0.0 0.00 0.00 0.00 72 1025.0
20211017035649 11 9 0.0 0.0 0.00 0.00 0.00 71 1024.9
20211017035212 11 9 0.0 0.0 0.00 0.00 0.00 72 1024.8
20211017035049 11 9 0.0 0.0 0.00 0.00 0.00 72 1024.8
20211017034449 11 9 0.0 0.0 0.00 0.00 0.00 72 1024.9
20211017033848 11 9 0.0 0.0 0.00 0.00 0.00 71 1024.8
20211017033249 11 9 0.0 0.0 0.00 0.00 0.00 71 1024.8
20211017033211 11 9 0.0 0.0 0.00 0.00 0.00 71 1024.8
20211017032647 11 9 0.0 0.0 0.00 0.00 0.00 70 1024.8
20211017032211 11 9 0.0 0.0 0.00 0.00 0.00 70 1024.8
20211017032047 11 9 0.0 0.0 0.00 0.00 0.00 70 1024.7
20211017031447 11 9 0.0 0.0 0.00 0.00 0.00 69 1024.8
20211017030848 12 9 0.0 0.0 0.00 0.00 0.00 68 1024.7
20211017030712 12 9 0.0 0.0 0.00 0.00 0.00 68 1024.7
20211017030249 12 9 0.0 0.0 0.00 0.00 0.00 68 1024.7
20211017030211 12 9 0.0 0.0 0.00 0.00 0.00 68 1024.7
20211017025648 12 9 0.0 0.0 0.00 0.00 0.00 68 1024.7
20211017025049 12 9 0.0 0.0 0.00 0.00 0.00 67 1024.7
20211017024449 12 9 0.0 0.0 0.00 0.00 0.00 66 1024.8
20211017024212 12 9 0.0 0.0 0.00 0.00 0.00 65 1024.7
20211017023847 12 9 0.0 0.0 0.00 0.00 0.00 65 1024.8
20211017023712 12 9 0.0 0.0 0.00 0.00 0.00 65 1024.8
20211017023248 12 9 0.0 0.0 0.00 0.00 0.00 65 1024.8
20211017023212 12 9 0.0 0.0 0.00 0.00 0.00 65 1024.8
20211017022712 12 9 0.0 0.0 0.00 0.00 0.00 64 1024.8
20211017022649 12 9 0.0 0.0 0.00 0.00 0.00 64 1024.8
20211017022049 13 9 0.0 0.0 0.00 0.00 0.00 64 1024.8
20211017021713 13 9 0.0 0.0 0.00 0.00 0.00 63 1024.9
20211017021449 13 9 0.0 0.0 0.00 0.00 0.00 62 1024.8
20211017020849 13 9 0.0 0.0 0.00 0.00 0.00 61 1024.8
20211017020713 13 9 0.0 0.0 0.00 0.00 0.00 61 1024.8
20211017020249 13 9 0.0 0.0 0.00 0.00 0.00 60 1024.6
20211017015649 13 9 0.0 0.0 0.00 0.00 0.00 59 1024.6
20211017015049 13 9 0.0 0.0 0.00 0.00 0.00 58 1024.5
20211017014450 14 9 0.0 0.0 0.00 0.00 0.00 56 1024.4
20211017013848 14 9 0.0 0.0 0.00 0.00 0.00 57 1024.4
20211017013249 14 9 0.0 0.0 0.00 0.00 0.00 55 1024.4
20211017012649 15 9 0.0 0.0 0.00 0.00 0.00 54 1024.4
20211017012048 15 9 0.0 0.0 0.00 0.00 0.00 52 1024.3
20211017011712 15 9 0.0 0.0 0.00 0.00 0.00 52 1024.3
20211017011448 15 9 0.0 0.0 0.00 0.00 0.00 52 1024.2
20211017010848 15 9 0.0 0.0 0.00 0.00 0.00 50 1024.1
20211017010712 16 9 0.0 0.0 0.00 0.00 0.00 50 1024.1
20211017010248 16 9 0.0 0.0 0.00 0.00 0.00 50 1024.1
20211017010213 16 9 0.0 0.0 0.00 0.00 0.00 50 1024.1
20211017005712 16 9 0.0 0.0 0.00 0.00 0.00 50 1024.1
20211017005647 16 9 0.0 0.0 0.00 0.00 0.00 49 1024.1
20211017005211 16 9 0.0 0.0 0.00 0.00 0.00 46 1024.0
20211017005048 16 9 0.0 0.0 0.00 0.00 0.00 47 1024.1
20211017004712 16 9 0.0 0.0 0.00 0.00 0.00 47 1024.1
20211017004447 17 9 0.0 0.0 0.00 0.00 0.00 45 1024.0
20211017004213 17 9 0.0 0.0 0.00 0.00 0.00 46 1024.0
20211017003848 17 9 0.0 0.0 0.00 0.00 0.00 45 1023.9
20211017003712 17 9 0.0 0.0 0.00 0.00 0.00 45 1023.9
20211017003248 17 9 0.0 0.0 0.00 0.00 0.00 45 1023.8
20211017002712 17 9 0.0 0.0 0.00 0.00 0.00 44 1023.8
20211017002649 17 9 0.0 0.0 0.00 0.00 0.00 45 1023.9
20211017002212 18 9 0.0 0.0 0.00 0.00 0.00 43 1023.8
20211017002048 18 9 0.0 0.0 0.00 0.00 0.00 42 1023.9
20211017001711 18 9 0.0 0.0 0.00 0.00 0.00 40 1023.8
20211017001448 18 9 0.0 0.0 0.00 0.00 0.00 41 1023.8
20211017001212 18 9 0.0 0.0 0.00 0.00 0.00 41 1023.8
20211017000848 18 9 0.0 0.0 0.00 0.00 0.00 40 1023.8
20211017000713 18 9 0.0 0.0 0.00 0.00 0.00 40 1023.8
20211017000248 18 9 0.0 4.8 0.00 0.00 0.00 39 1023.8
20211017000213 18 9 0.0 4.8 0.00 0.00 0.00 39 1023.8
20211016235712 18 9 0.0 0.0 0.00 0.00 0.00 39 1023.9
20211016235649 19 9 0.0 0.0 0.00 0.00 0.00 39 1023.9
20211016235212 19 9 0.0 0.0 0.00 0.00 0.00 38 1023.9
20211016235049 19 9 0.0 0.0 0.00 0.00 0.00 38 1023.9
20211016234712 19 9 0.0 0.0 0.00 0.00 0.00 38 1023.9
20211016234449 19 9 0.0 1.6 0.00 0.00 0.00 37 1023.9
20211016234212 20 9 0.0 4.8 0.00 0.00 0.00 37 1023.9
20211016233848 20 9 3.2 3.2 0.00 0.00 0.00 37 1024.0
20211016233248 20 9 4.8 4.8 0.00 0.00 0.00 36 1024.0
20211016232712 20 11 0.0 1.6 0.00 0.00 0.00 36 1024.0
20211016232649 20 11 0.0 3.2 0.00 0.00 0.00 35 1024.0
20211016232212 20 12 1.6 3.2 0.00 0.00 0.00 36 1024.0
20211016232050 20 12 0.0 0.0 0.00 0.00 0.00 36 1024.0
20211016231713 21 11 0.0 0.0 0.00 0.00 0.00 35 1023.9
20211016231449 21 12 0.0 3.2 0.00 0.00 0.00 35 1023.9
20211016231212 21 11 1.6 4.8 0.00 0.00 0.00 34 1023.9
20211016230850 21 32 3.2 4.8 0.00 0.00 0.00 34 1024.0
20211016230711 21 46 3.2 6.4 0.00 0.00 0.00 33 1023.9
20211016230249 21 344 1.6 4.8 0.00 0.00 0.00 33 1024.0
20211016230212 21 344 1.6 4.8 0.00 0.00 0.00 33 1024.0
20211016225711 21 311 4.8 6.4 0.00 0.00 0.00 33 1023.8
20211016225648 21 345 3.2 4.8 0.00 0.00 0.00 33 1023.9
20211016225048 21 14 0.0 3.2 0.00 0.00 0.00 33 1023.8
20211016224712 21 13 1.6 4.8 0.00 0.00 0.00 33 1023.8
20211016224448 21 334 4.8 6.4 0.00 0.00 0.00 32 1023.9
20211016223848 22 326 3.2 8.0 0.00 0.00 0.00 30 1024.0
20211016223711 22 306 3.2 6.4 0.00 0.00 0.00 30 1023.9
20211016223249 22 355 4.8 16.1 0.00 0.00 0.00 31 1024.0
20211016223211 22 355 4.8 16.1 0.00 0.00 0.00 31 1024.0
20211016222712 22 350 0.0 9.7 0.00 0.00 0.00 32 1024.0
20211016222653 22 355 4.8 14.5 0.00 0.00 0.00 32 1024.0
20211016222050 22 350 4.8 4.8 0.00 0.00 0.00 31 1024.0
20211016221712 22 330 4.8 8.0 0.00 0.00 0.00 31 1024.0
20211016221450 22 34 6.4 6.4 0.00 0.00 0.00 31 1024.0
20211016221213 22 19 4.8 6.4 0.00 0.00 0.00 31 1024.0
20211016220848 22 315 0.0 8.0 0.00 0.00 0.00 31 1024.0
20211016220712 22 355 4.8 6.4 0.00 0.00 0.00 31 1024.0
20211016220249 22 9 0.0 4.8 0.00 0.00 0.00 32 1024.0
20211016220212 22 9 0.0 4.8 0.00 0.00 0.00 32 1024.0
20211016215649 22 337 3.2 4.8 0.00 0.00 0.00 31 1024.0
20211016215212 22 325 14.5 14.5 0.00 0.00 0.00 32 1024.1
20211016215049 22 13 4.8 9.7 0.00 0.00 0.00 31 1024.0
20211016214713 22 355 3.2 9.7 0.00 0.00 0.00 31 1024.0
20211016214448 22 325 3.2 12.9 0.00 0.00 0.00 31 1024.1
20211016214212 22 337 4.8 9.7 0.00 0.00 0.00 31 1024.0
20211016213848 22 311 4.8 6.4 0.00 0.00 0.00 31 1024.1
20211016213713 22 332 0.0 6.4 0.00 0.00 0.00 31 1024.1
20211016213248 22 309 3.2 6.4 0.00 0.00 0.00 31 1024.2
20211016213211 22 309 3.2 6.4 0.00 0.00 0.00 31 1024.2
20211016212649 22 347 9.7 16.1 0.00 0.00 0.00 30 1024.3
20211016212212 22 324 14.5 16.1 0.00 0.00 0.00 30 1024.4
20211016212049 22 313 4.8 16.1 0.00 0.00 0.00 31 1024.3
20211016211712 22 24 6.4 12.9 0.00 0.00 0.00 31 1024.4
20211016211449 22 45 4.8 8.0 0.00 0.00 0.00 32 1024.4
20211016211212 22 360 11.3 12.9 0.00 0.00 0.00 31 1024.4
20211016210849 22 340 4.8 16.1 0.00 0.00 0.00 31 1024.5
20211016210714 22 309 4.8 8.0 0.00 0.00 0.00 31 1024.6
20211016210249 22 355 6.4 8.0 0.00 0.00 0.00 31 1024.5
20211016210211 22 355 6.4 8.0 0.00 0.00 0.00 31 1024.5
20211016205712 22 324 16.1 17.7 0.00 0.00 0.00 30 1024.6
20211016205648 22 355 3.2 6.4 0.00 0.00 0.00 31 1024.7
20211016205049 22 350 8.0 14.5 0.00 0.00 0.00 31 1024.6
20211016204448 22 325 4.8 6.4 0.00 0.00 0.00 33 1024.6
20211016203849 22 330 1.6 9.7 0.00 0.00 0.00 31 1024.7
20211016203711 22 310 9.7 9.7 0.00 0.00 0.00 31 1024.7
20211016203249 22 342 8.0 8.0 0.00 0.00 0.00 31 1024.7
20211016202650 22 344 1.6 6.4 0.00 0.00 0.00 32 1024.8
20211016202049 22 338 4.8 6.4 0.00 0.00 0.00 33 1024.8
20211016201712 22 5 3.2 16.1 0.00 0.00 0.00 32 1025.0
20211016201448 22 35 9.7 14.5 0.00 0.00 0.00 33 1024.9
20211016201212 22 323 1.6 4.8 0.00 0.00 0.00 32 1024.9
20211016200849 22 26 3.2 4.8 0.00 0.00 0.00 33 1025.0
20211016200713 22 30 3.2 9.7 0.00 0.00 0.00 33 1024.9
20211016200248 22 334 0.0 1.6 0.00 0.00 0.00 33 1024.9
20211016200213 22 334 0.0 1.6 0.00 0.00 0.00 33 1024.9
20211016195711 21 292 4.8 12.9 0.00 0.00 0.00 33 1025.2
20211016195649 21 32 4.8 12.9 0.00 0.00 0.00 33 1025.2
20211016195213 21 346 0.0 14.5 0.00 0.00 0.00 32 1025.2
20211016195049 21 360 9.7 12.9 0.00 0.00 0.00 34 1025.1
20211016194712 21 24 1.6 9.7 0.00 0.00 0.00 33 1025.1
20211016194449 21 338 9.7 16.1 0.00 0.00 0.00 33 1025.1
20211016193848 21 69 0.0 1.6 0.00 0.00 0.00 34 1025.3
20211016193249 21 349 4.8 8.0 0.00 0.00 0.00 33 1025.3
20211016193211 21 349 4.8 8.0 0.00 0.00 0.00 33 1025.3
20211016192711 21 34 3.2 9.7 0.00 0.00 0.00 32 1025.4
20211016192649 21 334 3.2 12.9 0.00 0.00 0.00 33 1025.5
20211016192212 21 308 14.5 22.5 0.00 0.00 0.00 34 1025.5
20211016192050 21 350 8.0 9.7 0.00 0.00 0.00 35 1025.6
20211016191450 21 333 3.2 4.8 0.00 0.00 0.00 35 1025.6
20211016191214 21 323 1.6 8.0 0.00 0.00 0.00 35 1025.6
20211016190848 21 323 4.8 6.4 0.00 0.00 0.00 35 1025.7
20211016190712 21 5 1.6 8.0 0.00 0.00 0.00 34 1025.7
20211016190248 21 336 16.1 16.1 0.00 0.00 0.00 35 1025.7
20211016190212 21 336 16.1 16.1 0.00 0.00 0.00 35 1025.7
20211016185713 21 325 0.0 8.0 0.00 0.00 0.00 35 1025.7
20211016185650 21 331 6.4 9.7 0.00 0.00 0.00 36 1025.8
20211016185213 21 13 8.0 12.9 0.00 0.00 0.00 35 1025.8
20211016185050 21 42 4.8 16.1 0.00 0.00 0.00 35 1025.8
20211016184449 21 11 1.6 16.1 0.00 0.00 0.00 35 1026.0
20211016184213 21 347 6.4 16.1 0.00 0.00 0.00 35 1026.1
20211016183849 21 5 6.4 8.0 0.00 0.00 0.00 35 1026.2
20211016183249 20 5 12.9 12.9 0.00 0.00 0.00 38 1026.3
20211016183213 20 5 12.9 12.9 0.00 0.00 0.00 38 1026.3
20211016182712 20 360 6.4 16.1 0.00 0.00 0.00 35 1026.5
20211016182649 20 355 4.8 16.1 0.00 0.00 0.00 36 1026.5
20211016182050 20 5 4.8 6.4 0.00 0.00 0.00 37 1026.6
20211016181450 20 17 4.8 9.7 0.00 0.00 0.00 37 1026.7
20211016181212 20 72 4.8 8.0 0.00 0.00 0.00 38 1026.7
20211016180849 20 346 4.8 8.0 0.00 0.00 0.00 36 1026.8
20211016180712 20 322 3.2 11.3 0.00 0.00 0.00 36 1026.8
20211016180248 20 311 4.8 16.1 0.00 0.00 0.00 37 1026.8
20211016180212 20 311 4.8 16.1 0.00 0.00 0.00 37 1026.8
20211016175712 20 291 4.8 14.5 0.00 0.00 0.00 38 1026.8
20211016175650 20 337 0.0 12.9 0.00 0.00 0.00 38 1026.9
20211016175213 20 355 9.7 16.1 0.00 0.00 0.00 39 1026.8
20211016175050 20 345 1.6 4.8 0.00 0.00 0.00 37 1026.8
20211016174712 20 345 14.5 14.5 0.00 0.00 0.00 38 1026.9
20211016174449 20 21 0.0 8.0 0.00 0.00 0.00 37 1026.9
20211016173848 20 32 3.2 4.8 0.00 0.00 0.00 39 1027.0
20211016173712 20 34 0.0 8.0 0.00 0.00 0.00 38 1027.0
20211016173249 20 25 6.4 6.4 0.00 0.00 0.00 36 1027.0
20211016173213 20 25 6.4 6.4 0.00 0.00 0.00 36 1027.0
20211016172714 20 5 4.8 8.0 0.00 0.00 0.00 38 1027.1
20211016172649 20 360 0.0 6.4 0.00 0.00 0.00 38 1027.1
20211016172211 20 330 4.8 12.9 0.00 0.00 0.00 37 1027.1
20211016172049 20 10 14.5 14.5 0.00 0.00 0.00 39 1027.2
20211016171713 20 9 9.7 14.5 0.00 0.00 0.00 40 1027.1
20211016171450 19 331 3.2 9.7 0.00 0.00 0.00 39 1027.1
20211016170849 19 344 3.2 19.3 0.00 0.00 0.00 38 1027.4
20211016170250 19 318 0.0 4.8 0.00 0.00 0.00 39 1027.4
20211016165712 19 344 1.6 6.4 0.00 0.00 0.00 40 1027.5
20211016165649 19 344 9.7 14.5 0.00 0.00 0.00 40 1027.4
20211016165212 18 16 6.4 8.0 0.00 0.00 0.00 41 1027.4
20211016165048 18 342 0.0 4.8 0.00 0.00 0.00 45 1027.3
20211016164448 18 35 4.8 8.0 0.00 0.00 0.00 44 1027.4
20211016163850 18 345 3.2 3.2 0.00 0.00 0.00 45 1027.3
20211016163249 18 320 8.0 12.9 0.00 0.00 0.00 44 1027.4
20211016163213 18 320 8.0 12.9 0.00 0.00 0.00 44 1027.4
20211016162713 18 337 4.8 9.7 0.00 0.00 0.00 45 1027.4
20211016162649 18 316 4.8 12.9 0.00 0.00 0.00 45 1027.3
20211016162213 18 21 8.0 9.7 0.00 0.00 0.00 44 1027.4
20211016162050 18 69 0.0 9.7 0.00 0.00 0.00 46 1027.3
20211016161448 18 25 4.8 4.8 0.00 0.00 0.00 46 1027.4
20211016161213 18 46 4.8 6.4 0.00 0.00 0.00 47 1027.3
20211016160850 17 36 4.8 8.0 0.00 0.00 0.00 46 1027.3
20211016160713 17 360 0.0 6.4 0.00 0.00 0.00 47 1027.3
20211016160249 17 22 4.8 9.7 0.00 0.00 0.00 51 1027.3
20211016160212 17 22 4.8 9.7 0.00 0.00 0.00 51 1027.3
20211016155713 17 351 0.0 8.0 0.00 0.00 0.00 50 1027.3
20211016155649 17 351 4.8 4.8 0.00 0.00 0.00 50 1027.3
20211016155212 17 318 12.9 12.9 0.00 0.00 0.00 51 1027.2
20211016155049 17 32 0.0 0.0 0.00 0.00 0.00 55 1027.2
20211016154712 17 32 0.0 4.8 0.00 0.00 0.00 53 1027.2
20211016154449 17 47 1.6 9.7 0.00 0.00 0.00 52 1027.3
20211016154212 17 315 1.6 4.8 0.00 0.00 0.00 53 1027.2
20211016153850 16 5 1.6 1.6 0.00 0.00 0.00 56 1027.2
20211016153249 16 355 0.0 4.8 0.00 0.00 0.00 55 1027.3